Time;durP1;ratioP1;P1;durP2;ratioP2;P2;SDS_P1;SDS_P2;PMS_P1;PMS_P2;Temp;Humidity;BMP_temperature;BMP_pressure;BME280_temperature;BME280_humidity;BME280_pressure;Samples;Min_cycle;Max_cycle;Signal;HPM_P1;HPM_P2
2022/06/20 00:00:40;;;;;;;6.68;0.60;;;15.20;82.50;;;;;;5016558;28;20026;-80
2022/06/20 00:03:09;;;;;;;5.03;0.70;;;15.10;82.60;;;;;;4998790;28;20410;-80
2022/06/20 00:05:36;;;;;;;7.32;0.90;;;15.10;82.70;;;;;;5016501;28;20022;-80
2022/06/20 00:08:04;;;;;;;10.32;1.02;;;15.00;82.70;;;;;;5015668;28;20486;-80
2022/06/20 00:10:30;;;;;;;5.82;0.60;;;15.00;82.70;;;;;;5016582;28;20474;-80
2022/06/20 00:12:57;;;;;;;5.88;0.70;;;14.90;82.70;;;;;;5016310;28;20398;-80
2022/06/20 00:15:27;;;;;;;8.85;1.10;;;14.80;82.80;;;;;;5016238;28;20030;-79
2022/06/20 00:17:55;;;;;;;4.65;0.63;;;14.90;83.00;;;;;;5031508;28;20108;-79
2022/06/20 00:20:21;;;;;;;4.10;0.50;;;14.80;83.00;;;;;;5016282;28;20022;-80
2022/06/20 00:22:47;;;;;;;5.22;0.73;;;14.80;83.10;;;;;;5016217;28;20386;-77
2022/06/20 00:25:14;;;;;;;6.30;0.70;;;14.70;83.30;;;;;;5016077;28;20029;-77
2022/06/20 00:27:39;;;;;;;5.45;0.75;;;14.70;83.40;;;;;;5016091;28;20037;-77
2022/06/20 00:30:06;;;;;;;6.88;0.90;;;14.70;83.60;;;;;;5016124;28;20034;-77
2022/06/20 00:32:32;;;;;;;5.82;0.70;;;14.60;83.80;;;;;;5015420;28;20064;-78
2022/06/20 00:34:57;;;;;;;5.47;0.90;;;14.70;83.90;;;;;;5015805;28;20058;-77
2022/06/20 00:37:23;;;;;;;7.15;0.68;;;14.70;84.00;;;;;;5015809;28;20437;-79
2022/06/20 00:39:50;;;;;;;6.00;0.88;;;14.70;84.80;;;;;;5014566;28;20040;-80
2022/06/20 00:42:16;;;;;;;6.13;1.05;;;14.60;84.10;;;;;;5015947;28;20022;-74
2022/06/20 00:44:46;;;;;;;4.95;0.80;;;14.70;84.20;;;;;;5031118;28;20038;-74
2022/06/20 00:47:19;;;;;;;5.47;0.70;;;14.60;84.20;;;;;;5015769;28;20108;-73
2022/06/20 00:49:54;;;;;;;7.40;1.40;;;14.60;84.40;;;;;;5014640;28;20127;-74
2022/06/20 00:52:29;;;;;;;7.20;0.90;;;14.60;84.40;;;;;;5031015;28;20030;-74
2022/06/20 00:55:32;;;;;;;8.45;0.88;;;14.50;84.50;;;;;;5014542;28;20026;-73
2022/06/20 00:58:10;;;;;;;6.70;0.70;;;14.50;84.70;;;;;;5030732;28;20128;-74
2022/06/20 01:00:38;;;;;;;7.90;1.00;;;14.50;84.70;;;;;;5015483;28;20026;-74
2022/06/20 01:03:17;;;;;;;7.25;1.30;;;14.50;84.90;;;;;;5015670;28;20045;-73
2022/06/20 01:06:08;;;;;;;9.05;1.05;;;14.50;85.10;;;;;;5015762;28;20520;-74
2022/06/20 01:08:59;;;;;;;4.88;0.52;;;14.50;85.10;;;;;;5005191;28;20040;-74
2022/06/20 01:11:34;;;;;;;4.47;0.65;;;14.50;85.10;;;;;;5014188;28;20076;-74
2022/06/20 01:14:17;;;;;;;8.38;1.08;;;14.50;85.10;;;;;;5015348;28;20102;-74
2022/06/20 01:16:43;;;;;;;8.45;1.05;;;14.50;85.10;;;;;;5015395;28;20434;-80
2022/06/20 01:19:09;;;;;;;12.57;0.90;;;14.50;85.10;;;;;;5014073;28;20022;-78
2022/06/20 01:21:36;;;;;;;7.45;1.00;;;14.40;85.20;;;;;;5015086;28;20030;-80
2022/06/20 01:24:07;;;;;;;6.15;0.80;;;14.40;85.40;;;;;;5013693;28;20029;-78
2022/06/20 01:26:49;;;;;;;5.45;0.77;;;14.30;85.50;;;;;;5014906;28;20034;-78
2022/06/20 01:29:16;;;;;;;5.70;0.90;;;14.40;85.80;;;;;;5030085;28;20026;-78
2022/06/20 01:31:49;;;;;;;5.85;0.75;;;14.40;85.90;;;;;;5013639;28;20505;-78
2022/06/20 01:34:17;;;;;;;8.40;1.00;;;14.30;85.90;;;;;;5015100;28;20029;-78
2022/06/20 01:39:34;;;;;;;4.80;0.80;;;14.30;86.00;;;;;;5015130;28;20406;-78
2022/06/20 01:42:20;;;;;;;8.52;0.80;;;14.30;86.40;;;;;;5014486;28;20068;-78
2022/06/20 01:45:57;;;;;;;5.10;0.68;;;14.30;86.20;;;;;;5013865;28;20025;-78
2022/06/20 01:48:04;;;;;;;6.28;0.75;;;14.30;86.40;;;;;;5014507;28;20034;-79
2022/06/20 01:50:32;;;;;;;9.52;1.15;;;14.30;86.50;;;;;;5014580;28;20426;-79
2022/06/20 01:53:02;;;;;;;4.63;0.60;;;14.30;86.50;;;;;;5013255;28;20371;-78
2022/06/20 01:55:29;;;;;;;7.00;0.60;;;14.30;86.50;;;;;;5014493;28;20479;-78
2022/06/20 01:58:04;;;;;;;4.25;0.75;;;14.30;86.60;;;;;;5029662;28;20029;-79
2022/06/20 02:00:30;;;;;;;6.32;0.70;;;14.30;86.70;;;;;;5014335;28;20022;-78
2022/06/20 02:03:02;;;;;;;5.32;1.10;;;14.20;86.80;;;;;;5014128;28;20502;-79
2022/06/20 02:05:31;;;;;;;5.32;0.80;;;14.20;86.90;;;;;;5014309;28;20153;-79
2022/06/20 02:08:00;;;;;;;6.25;0.95;;;14.10;87.10;;;;;;5029506;28;20164;-78
2022/06/20 02:10:31;;;;;;;5.30;0.70;;;14.20;87.20;;;;;;5014132;28;20521;-78
2022/06/20 02:13:00;;;;;;;6.35;0.80;;;14.10;87.30;;;;;;5014087;28;20104;-78
2022/06/20 02:15:27;;;;;;;5.25;0.80;;;14.10;87.40;;;;;;5014365;28;20054;-72
2022/06/20 02:17:54;;;;;;;6.07;1.20;;;14.10;87.50;;;;;;4996956;28;20413;-73
2022/06/20 02:20:27;;;;;;;6.15;0.90;;;14.00;87.50;;;;;;5029401;28;20121;-74
2022/06/20 02:22:54;;;;;;;6.97;1.15;;;14.00;87.80;;;;;;5014749;28;20357;-72
2022/06/20 02:25:23;;;;;;;5.50;0.90;;;14.00;88.00;;;;;;5014246;28;20550;-73
2022/06/20 02:27:53;;;;;;;3.63;0.68;;;14.00;88.20;;;;;;5029548;28;20482;-72
2022/06/20 02:30:20;;;;;;;4.60;0.93;;;14.00;88.40;;;;;;5014148;28;20030;-72
2022/06/20 02:32:53;;;;;;;5.63;1.00;;;14.00;88.50;;;;;;5014203;28;20056;-72
2022/06/20 02:35:20;;;;;;;4.47;0.82;;;13.90;88.60;;;;;;5014414;28;20342;-72
2022/06/20 02:37:47;;;;;;;4.05;0.90;;;13.90;88.70;;;;;;5013811;28;20018;-72
2022/06/20 02:40:16;;;;;;;5.65;0.85;;;14.00;88.80;;;;;;4996513;28;20026;-73
2022/06/20 02:42:45;;;;;;;5.20;1.10;;;14.00;89.00;;;;;;5007857;28;20591;-73
2022/06/20 02:45:12;;;;;;;3.55;0.77;;;13.90;89.10;;;;;;5012328;28;20366;-72
2022/06/20 02:47:46;;;;;;;2.88;0.60;;;14.00;89.90;;;;;;5013722;28;20029;-72
2022/06/20 02:50:14;;;;;;;7.72;1.20;;;14.00;89.40;;;;;;5012645;28;20018;-72
2022/06/20 02:52:46;;;;;;;3.47;0.90;;;14.00;89.40;;;;;;5013637;28;20030;-72
2022/06/20 02:55:14;;;;;;;5.88;0.95;;;14.00;89.50;;;;;;5029292;28;20010;-72
2022/06/20 02:57:47;;;;;;;3.72;0.77;;;14.00;89.60;;;;;;5035458;28;20390;-72
2022/06/20 03:00:36;;;;;;;11.38;1.55;;;13.90;89.70;;;;;;5019520;28;20474;-72
2022/06/20 03:03:09;;;;;;;5.93;1.13;;;13.90;90.00;;;;;;5020065;28;20054;-74
2022/06/20 03:05:37;;;;;;;6.55;1.23;;;13.90;90.00;;;;;;5020598;28;20049;-72
2022/06/20 03:08:03;;;;;;;2.30;0.50;;;14.00;90.10;;;;;;5035642;28;20099;-72
2022/06/20 03:10:35;;;;;;;4.88;0.82;;;13.90;90.10;;;;;;5018999;28;20084;-74
2022/06/20 03:13:02;;;;;;;5.43;1.33;;;13.90;90.20;;;;;;5020140;28;20032;-72
2022/06/20 03:15:29;;;;;;;4.30;0.70;;;13.90;90.20;;;;;;5019125;28;20055;-72
2022/06/20 03:17:57;;;;;;;5.13;0.60;;;14.00;90.20;;;;;;5002922;28;20367;-72
2022/06/20 03:20:26;;;;;;;7.05;0.95;;;14.00;90.20;;;;;;5020076;28;20038;-73
2022/06/20 03:22:59;;;;;;;6.18;0.80;;;14.00;90.20;;;;;;5019255;28;20414;-74
2022/06/20 03:25:25;;;;;;;4.35;0.60;;;13.90;90.20;;;;;;5035365;28;20478;-72
2022/06/20 03:27:52;;;;;;;8.65;0.90;;;13.90;90.20;;;;;;5018774;28;20056;-72
2022/06/20 03:30:24;;;;;;;4.72;0.70;;;13.90;90.20;;;;;;5020043;28;20474;-72
2022/06/20 03:32:50;;;;;;;4.15;0.93;;;13.90;90.20;;;;;;5020108;28;20125;-72
2022/06/20 03:35:16;;;;;;;8.18;1.45;;;13.90;90.20;;;;;;5034970;28;20133;-72
2022/06/20 03:37:42;;;;;;;9.32;1.83;;;13.90;90.20;;;;;;5019810;28;20049;-73
2022/06/20 03:40:08;;;;;;;4.07;0.68;;;13.90;90.20;;;;;;5035321;28;20425;-73
2022/06/20 03:42:34;;;;;;;5.22;0.80;;;13.90;90.20;;;;;;5018754;28;20037;-72
2022/06/20 03:45:03;;;;;;;5.65;0.77;;;13.90;90.20;;;;;;5002338;28;20022;-72
2022/06/20 03:47:54;;;;;;;7.68;0.80;;;13.80;90.20;;;;;;5018636;28;20053;-73
2022/06/20 03:50:29;;;;;;;3.85;0.80;;;13.90;90.30;;;;;;5019725;28;20536;-72
2022/06/20 03:53:04;;;;;;;5.35;1.00;;;13.80;90.30;;;;;;5019688;28;20057;-74
2022/06/20 03:55:39;;;;;;;6.25;1.13;;;13.90;90.30;;;;;;5019806;28;20033;-72
2022/06/20 03:58:29;;;;;;;6.82;0.88;;;13.80;90.30;;;;;;5035269;28;20033;-72
2022/06/20 04:01:12;;;;;;;5.30;0.82;;;13.80;90.30;;;;;;5019800;28;20045;-72
2022/06/20 04:03:46;;;;;;;4.32;1.02;;;13.80;90.20;;;;;;5019222;28;20049;-72
2022/06/20 04:06:21;;;;;;;4.10;0.90;;;13.90;90.30;;;;;;5019304;28;20018;-72
2022/06/20 04:11:42;;;;;;;3.45;0.95;;;13.80;90.30;;;;;;5012837;28;20088;-72
2022/06/20 04:14:23;;;;;;;5.70;1.02;;;13.90;90.30;;;;;;5002596;28;20060;-74
2022/06/20 04:16:57;;;;;;;6.70;1.00;;;13.90;90.40;;;;;;5022982;28;20023;-72
2022/06/20 04:19:35;;;;;;;3.92;0.90;;;13.90;90.30;;;;;;5011688;28;20026;-72
2022/06/20 04:22:19;;;;;;;8.75;1.45;;;13.80;90.30;;;;;;5016109;28;20026;-72
2022/06/20 04:25:16;;;;;;;5.40;1.00;;;13.90;90.40;;;;;;5015275;28;20485;-72
2022/06/20 04:27:50;;;;;;;10.45;1.50;;;13.90;90.50;;;;;;5016400;28;20026;-72
2022/06/20 04:30:35;;;;;;;4.85;0.80;;;14.00;90.50;;;;;;5016133;28;20032;-73
2022/06/20 04:33:11;;;;;;;5.25;1.20;;;14.00;90.50;;;;;;5031295;28;20029;-72
2022/06/20 04:35:43;;;;;;;4.05;1.00;;;14.00;90.50;;;;;;5016088;28;20030;-73
2022/06/20 04:38:19;;;;;;;5.88;1.20;;;14.10;90.60;;;;;;5014825;28;20117;-72
2022/06/20 04:40:59;;;;;;;6.25;1.17;;;14.00;90.70;;;;;;5031116;28;20413;-73
2022/06/20 04:43:55;;;;;;;7.53;1.88;;;14.10;90.60;;;;;;5014395;28;20049;-73
2022/06/20 04:46:31;;;;;;;8.23;1.85;;;14.10;91.00;;;;;;5014957;28;20073;-72
2022/06/20 04:48:57;;;;;;;7.43;1.38;;;14.00;90.70;;;;;;5031179;28;20034;-72
2022/06/20 04:51:32;;;;;;;5.85;0.90;;;14.10;90.80;;;;;;5015803;28;20044;-72
2022/06/20 04:53:59;;;;;;;4.70;1.00;;;14.10;90.80;;;;;;5015876;28;20101;-72
2022/06/20 04:56:27;;;;;;;4.78;1.00;;;14.10;90.80;;;;;;5015688;28;20080;-73
2022/06/20 04:59:17;;;;;;;5.60;0.98;;;14.10;90.80;;;;;;5015650;28;20072;-72
2022/06/20 05:01:43;;;;;;;10.57;1.27;;;14.20;90.90;;;;;;5015743;28;20066;-73
2022/06/20 05:04:13;;;;;;;8.45;1.30;;;14.20;90.90;;;;;;5014509;28;20431;-74
2022/06/20 05:06:41;;;;;;;4.97;0.98;;;14.20;90.90;;;;;;5015312;28;20062;-75
2022/06/20 05:09:16;;;;;;;6.97;1.10;;;14.30;91.00;;;;;;5015464;28;20025;-75
2022/06/20 05:11:47;;;;;;;5.07;0.80;;;14.30;91.10;;;;;;5015348;28;20109;-74
2022/06/20 05:14:30;;;;;;;9.18;1.60;;;14.40;91.20;;;;;;5014110;28;20049;-74
2022/06/20 05:16:56;;;;;;;5.65;0.80;;;14.50;91.20;;;;;;5015627;28;20096;-74
2022/06/20 05:19:30;;;;;;;9.00;1.25;;;14.50;91.20;;;;;;5015100;28;20463;-74
2022/06/20 05:21:59;;;;;;;5.78;1.30;;;14.60;91.30;;;;;;5030472;28;20076;-76
2022/06/20 05:24:35;;;;;;;4.40;1.25;;;14.80;91.30;;;;;;5013804;28;20109;-74
2022/06/20 05:27:27;;;;;;;8.55;1.20;;;14.80;91.10;;;;;;5011955;28;20033;-74
2022/06/20 05:29:55;;;;;;;9.07;2.10;;;14.90;91.10;;;;;;5000845;28;20038;-75
2022/06/20 05:32:32;;;;;;;8.18;1.40;;;15.00;91.00;;;;;;5001276;28;20030;-75
2022/06/20 05:35:05;;;;;;;5.40;0.85;;;15.00;90.80;;;;;;5005974;28;20113;-75
2022/06/20 05:37:40;;;;;;;4.90;1.10;;;15.10;90.60;;;;;;5011176;28;20445;-75
2022/06/20 05:40:13;;;;;;;2.65;1.00;;;15.10;90.50;;;;;;5003951;28;20029;-74
2022/06/20 05:42:39;;;;;;;3.90;0.90;;;15.10;90.50;;;;;;5005043;28;20044;-76
2022/06/20 05:45:20;;;;;;;6.47;1.42;;;15.10;90.40;;;;;;4991726;28;20037;-75
2022/06/20 05:47:58;;;;;;;8.73;1.33;;;15.20;90.30;;;;;;5001578;28;20481;-75
2022/06/20 05:50:50;;;;;;;9.60;1.60;;;15.20;90.20;;;;;;4994940;28;20026;-81
2022/06/20 05:53:27;;;;;;;6.60;1.00;;;15.20;90.10;;;;;;4995150;28;20034;-82
2022/06/20 05:55:56;;;;;;;6.20;1.02;;;15.20;90.10;;;;;;4994798;28;20368;-81
2022/06/20 05:58:34;;;;;;;4.22;0.77;;;15.30;90.10;;;;;;4994745;28;20027;-81
2022/06/20 06:01:09;;;;;;;6.80;1.05;;;15.30;90.10;;;;;;5004162;28;20033;-80
2022/06/20 06:03:41;;;;;;;4.05;0.70;;;15.30;90.00;;;;;;5013044;28;20041;-80
2022/06/20 06:06:20;;;;;;;5.55;0.82;;;15.40;90.00;;;;;;5014350;28;20034;-80
2022/06/20 06:09:01;;;;;;;8.68;1.10;;;15.40;90.00;;;;;;5014153;28;20030;-80
2022/06/20 06:11:37;;;;;;;7.22;1.00;;;15.40;90.00;;;;;;5014031;28;20022;-79
2022/06/20 06:14:18;;;;;;;5.50;1.25;;;15.40;90.00;;;;;;5013917;28;20022;-80
2022/06/20 06:17:14;;;;;;;4.32;1.00;;;15.40;90.00;;;;;;5013894;28;20026;-81
2022/06/20 06:19:51;;;;;;;5.45;1.02;;;15.50;90.00;;;;;;4983631;28;20034;-82
2022/06/20 06:22:21;;;;;;;7.50;1.10;;;15.50;90.00;;;;;;4994056;28;20462;-80
2022/06/20 06:24:52;;;;;;;6.50;1.00;;;15.60;90.00;;;;;;4994128;28;20179;-82
2022/06/20 06:27:26;;;;;;;4.68;0.85;;;15.60;90.00;;;;;;5008127;28;20025;-81
2022/06/20 06:29:55;;;;;;;;;;;15.70;90.00;;;;;;5012952;28;20045;-81
2022/06/20 06:32:34;;;;;;;3.38;0.75;;;15.80;89.90;;;;;;5011831;28;19916;-80
2022/06/20 06:35:12;;;;;;;6.13;1.30;;;15.90;89.70;;;;;;5013555;28;20029;-81
2022/06/20 06:38:01;;;;;;;4.93;1.10;;;15.90;89.50;;;;;;5013617;28;20481;-81
2022/06/20 06:40:43;;;;;;;5.05;0.82;;;16.00;89.40;;;;;;5013726;28;20029;-81
2022/06/20 06:43:17;;;;;;;6.53;0.85;;;16.10;89.30;;;;;;5014092;28;20474;-81
2022/06/20 06:45:45;;;;;;;7.75;1.33;;;16.10;89.20;;;;;;5013910;28;20425;-81
2022/06/20 06:48:21;;;;;;;3.35;0.98;;;16.20;89.10;;;;;;5013689;28;20390;-81
2022/06/20 06:50:53;;;;;;;6.97;1.58;;;16.30;88.90;;;;;;5013797;28;20058;-81
2022/06/20 06:53:34;;;;;;;6.38;1.50;;;16.40;88.50;;;;;;5013569;28;20109;-81
2022/06/20 06:56:11;;;;;;;7.05;1.23;;;16.50;88.10;;;;;;5013435;28;20026;-80
2022/06/20 06:58:49;;;;;;;4.90;1.38;;;16.60;87.70;;;;;;5013465;28;20061;-81
2022/06/20 07:01:20;;;;;;;6.85;1.52;;;16.70;87.40;;;;;;5013531;28;20381;-82
2022/06/20 07:04:13;;;;;;;3.97;1.08;;;16.70;86.80;;;;;;5013320;28;20046;-83
2022/06/20 07:06:47;;;;;;;7.03;1.40;;;16.80;86.20;;;;;;4994537;28;20038;-83
2022/06/20 07:09:40;;;;;;;6.13;1.40;;;16.80;85.70;;;;;;5013611;28;20088;-81
2022/06/20 07:12:18;;;;;;;5.53;1.35;;;16.90;85.40;;;;;;5013342;28;20028;-83
2022/06/20 07:14:48;;;;;;;5.57;1.08;;;16.90;85.20;;;;;;5013422;28;20422;-81
2022/06/20 07:17:22;;;;;;;6.13;1.25;;;16.90;84.70;;;;;;5012278;28;20029;-81
2022/06/20 07:19:48;;;;;;;;;;;17.00;84.40;;;;;;5013789;28;20064;-81
2022/06/20 07:22:15;;;;;;;9.32;1.42;;;17.10;84.20;;;;;;5013303;28;19971;-81
2022/06/20 07:24:43;;;;;;;4.75;0.95;;;17.20;84.20;;;;;;5013397;28;20061;-82
2022/06/20 07:27:11;;;;;;;4.72;1.05;;;17.20;83.70;;;;;;5013762;28;20442;-81
2022/06/20 07:29:46;;;;;;;5.57;1.00;;;17.30;83.20;;;;;;5013387;28;20033;-81
2022/06/20 07:32:16;;;;;;;5.00;1.25;;;17.30;82.50;;;;;;5013394;28;20026;-81
2022/06/20 07:34:51;;;;;;;6.35;1.00;;;17.40;81.90;;;;;;5011873;28;20463;-81
2022/06/20 07:37:24;;;;;;;4.45;0.90;;;17.40;81.50;;;;;;5013320;28;20026;-81
2022/06/20 07:40:03;;;;;;;4.28;1.35;;;17.50;80.90;;;;;;5012064;28;20052;-82
2022/06/20 07:42:54;;;;;;;3.95;0.90;;;17.60;80.60;;;;;;5013346;28;20026;-82
2022/06/20 07:45:26;;;;;;;5.05;0.95;;;17.60;79.70;;;;;;5016814;28;20034;-80
2022/06/20 07:47:58;;;;;;;3.72;1.05;;;17.60;79.20;;;;;;5015493;28;20176;-83
2022/06/20 07:50:26;;;;;;;5.38;1.15;;;17.70;78.60;;;;;;5016914;28;20040;-83
2022/06/20 07:53:06;;;;;;;5.03;1.15;;;17.70;78.10;;;;;;5016704;28;20564;-82
2022/06/20 07:55:33;;;;;;;5.53;1.52;;;17.80;77.60;;;;;;5016737;28;20025;-81
2022/06/20 07:58:07;;;;;;;5.35;1.50;;;17.80;77.80;;;;;;5016787;28;20056;-83
2022/06/20 08:00:53;;;;;;;5.38;1.30;;;17.90;76.70;;;;;;5015423;28;20025;-81
2022/06/20 08:03:38;;;;;;;5.32;1.13;;;17.90;76.20;;;;;;5015100;28;20529;-83
2022/06/20 08:06:29;;;;;;;4.55;0.90;;;17.90;75.50;;;;;;5016411;28;20025;-84
2022/06/20 08:09:17;;;;;;;3.45;1.13;;;18.00;75.10;;;;;;5015436;28;20022;-81
2022/06/20 08:11:45;;;;;;;3.80;0.80;;;17.90;74.20;;;;;;5015030;28;20504;-79
2022/06/20 08:14:14;;;;;;;5.15;1.08;;;17.90;73.90;;;;;;5016257;28;20040;-83
2022/06/20 08:16:40;;;;;;;3.00;0.77;;;18.00;73.40;;;;;;5016228;28;20030;-81
2022/06/20 08:19:06;;;;;;;3.20;0.93;;;18.00;73.00;;;;;;5016218;28;20033;-81
2022/06/20 08:21:40;;;;;;;7.82;1.45;;;18.10;72.80;;;;;;5014874;28;20050;-81
2022/06/20 08:24:09;;;;;;;;;;;18.10;72.60;;;;;;5015269;28;20021;-81
2022/06/20 08:26:42;;;;;;;2.92;0.80;;;18.20;72.50;;;;;;5016084;28;19928;-81
2022/06/20 08:29:21;;;;;;;5.15;1.70;;;18.20;72.40;;;;;;5016067;28;20057;-82
2022/06/20 08:31:52;;;;;;;4.65;1.00;;;18.40;71.70;;;;;;5014650;28;20393;-82
2022/06/20 08:34:34;;;;;;;4.55;1.10;;;18.40;71.20;;;;;;5014666;28;20351;-82
2022/06/20 08:37:21;;;;;;;3.40;1.02;;;18.50;70.90;;;;;;5015965;28;20533;-82
2022/06/20 08:39:55;;;;;;;7.93;1.33;;;18.60;70.70;;;;;;5015994;28;20049;-83
2022/06/20 08:42:46;;;;;;;7.25;1.13;;;18.70;70.50;;;;;;5015841;28;20137;-81
2022/06/20 08:45:23;;;;;;;7.03;1.73;;;18.70;70.40;;;;;;5015700;28;20474;-82
2022/06/20 08:48:06;;;;;;;5.22;1.33;;;18.70;70.40;;;;;;5015709;28;20030;-84
2022/06/20 08:50:51;;;;;;;5.68;1.52;;;18.70;70.10;;;;;;5015822;28;20026;-81
2022/06/20 08:53:19;;;;;;;5.20;1.42;;;18.80;70.20;;;;;;5015316;28;20098;-81
2022/06/20 08:56:03;;;;;;;7.20;1.38;;;18.70;70.20;;;;;;5015479;28;20566;-83
2022/06/20 08:58:38;;;;;;;5.28;1.42;;;18.80;70.00;;;;;;5015499;28;20028;-82
2022/06/20 09:01:45;;;;;;;5.70;1.13;;;18.80;70.00;;;;;;5015356;28;20026;-80
2022/06/20 09:04:30;;;;;;;6.72;1.63;;;18.90;70.00;;;;;;5006411;28;20494;-81
2022/06/20 09:07:07;;;;;;;5.20;1.27;;;18.90;69.70;;;;;;5015579;28;20107;-81
2022/06/20 09:09:47;;;;;;;6.22;1.27;;;18.90;69.60;;;;;;5015724;28;20022;-81
2022/06/20 09:12:22;;;;;;;4.38;0.90;;;19.00;69.20;;;;;;5012376;28;20022;-80
2022/06/20 09:15:06;;;;;;;4.55;1.27;;;19.10;68.70;;;;;;5015111;28;20390;-83
2022/06/20 09:17:55;;;;;;;6.80;1.35;;;19.20;68.00;;;;;;5015001;28;20061;-85
2022/06/20 09:20:43;;;;;;;5.50;1.20;;;19.30;67.40;;;;;;5013894;28;20087;-84
2022/06/20 09:23:34;;;;;;;3.70;0.98;;;19.30;66.90;;;;;;5015315;28;20052;-80
2022/06/20 09:26:16;;;;;;;5.50;1.25;;;19.40;66.60;;;;;;5013702;28;20025;-87
2022/06/20 09:28:48;;;;;;;8.07;1.25;;;19.40;66.40;;;;;;5012747;28;20025;-82
2022/06/20 09:31:35;;;;;;;5.70;0.90;;;19.40;66.10;;;;;;5014740;28;20029;-85
2022/06/20 09:34:19;;;;;;;3.92;0.90;;;19.40;65.90;;;;;;5013433;28;20034;-80
2022/06/20 09:37:03;;;;;;;7.20;1.55;;;19.40;65.60;;;;;;5013460;28;20079;-83
2022/06/20 09:39:53;;;;;;;4.80;1.20;;;19.40;66.20;;;;;;5013509;28;20030;-81
2022/06/20 09:43:00;;;;;;;9.63;1.55;;;19.50;65.80;;;;;;5030339;28;20030;-83
2022/06/20 09:45:46;;;;;;;5.15;1.20;;;19.60;65.90;;;;;;5014746;28;20029;-82
2022/06/20 09:48:27;;;;;;;3.13;1.02;;;19.70;65.70;;;;;;5029936;28;20049;-81
2022/06/20 09:51:21;;;;;;;5.20;1.00;;;19.80;65.30;;;;;;5013304;28;20045;-82
2022/06/20 09:54:05;;;;;;;6.38;1.23;;;19.90;65.10;;;;;;5013246;28;20037;-83
2022/06/20 09:56:41;;;;;;;4.60;1.30;;;20.00;65.20;;;;;;5014547;28;20029;-80
2022/06/20 09:59:22;;;;;;;6.93;1.23;;;20.10;64.70;;;;;;5014747;28;20018;-81
2022/06/20 10:02:25;;;;;;;5.95;1.23;;;20.10;63.90;;;;;;5014664;28;20037;-84
2022/06/20 10:05:09;;;;;;;3.17;0.80;;;20.20;63.50;;;;;;5013953;28;20088;-80
2022/06/20 10:07:51;;;;;;;5.45;0.90;;;20.20;63.40;;;;;;5014469;28;20033;-80
2022/06/20 10:10:49;;;;;;;3.55;0.85;;;20.20;63.10;;;;;;5029654;28;20041;-80
2022/06/20 10:13:20;;;;;;;3.05;0.90;;;20.20;62.60;;;;;;5014041;28;20034;-80
2022/06/20 10:16:08;;;;;;;6.00;1.10;;;20.30;62.40;;;;;;5014114;28;20026;-80
2022/06/20 10:19:01;;;;;;;3.75;0.70;;;20.30;62.10;;;;;;5014091;28;20072;-82
2022/06/20 10:21:45;;;;;;;6.00;1.35;;;20.30;61.70;;;;;;5012800;28;20026;-80
2022/06/20 10:24:17;;;;;;;4.43;0.90;;;20.40;61.80;;;;;;5013947;28;20018;-79
2022/06/20 10:26:51;;;;;;;4.85;0.88;;;20.50;61.70;;;;;;5013967;28;20033;-82
2022/06/20 10:29:20;;;;;;;8.02;1.40;;;20.50;61.20;;;;;;5014336;28;20018;-83
2022/06/20 10:32:16;;;;;;;2.92;0.70;;;20.50;60.90;;;;;;5013787;28;20038;-83
2022/06/20 10:35:01;;;;;;;3.38;0.80;;;20.60;60.80;;;;;;5028981;28;20363;-82
2022/06/20 10:37:40;;;;;;;4.75;0.88;;;20.70;60.70;;;;;;5028895;28;20104;-82
2022/06/20 10:40:26;;;;;;;4.45;0.68;;;20.80;60.20;;;;;;5013841;28;20061;-85
2022/06/20 10:42:58;;;;;;;1.48;0.50;;;20.90;59.20;;;;;;5013409;28;20113;-86
2022/06/20 10:45:32;;;;;;;2.30;0.55;;;21.00;58.60;;;;;;5012504;28;20487;-85
2022/06/20 10:48:13;;;;;;;3.22;0.70;;;20.90;57.80;;;;;;5013558;28;20041;-84
2022/06/20 10:50:51;;;;;;;5.28;0.80;;;20.90;57.40;;;;;;5013572;28;20486;-87
2022/06/20 10:53:37;;;;;;;4.25;0.88;;;20.90;57.30;;;;;;5013804;28;20026;-84
2022/06/20 10:56:03;;;;;;;3.58;0.57;;;21.00;57.00;;;;;;5013613;28;20056;-85
2022/06/20 10:59:05;;;;;;;5.95;0.68;;;21.10;57.00;;;;;;5012269;28;20089;-84
2022/06/20 11:01:51;;;;;;;1.90;0.50;;;21.30;56.60;;;;;;5013705;28;20101;-81
2022/06/20 11:04:35;;;;;;;3.75;0.50;;;21.50;56.60;;;;;;5013430;28;20034;-82
2022/06/20 11:07:17;;;;;;;4.13;0.70;;;21.70;56.10;;;;;;5012531;28;20087;-85
2022/06/20 11:10:01;;;;;;;2.53;0.50;;;21.80;55.80;;;;;;5013359;28;20026;-82
2022/06/20 11:12:38;;;;;;;2.33;0.30;;;21.90;55.40;;;;;;5012112;28;20034;-82
2022/06/20 11:16:02;;;;;;;2.08;0.50;;;22.10;55.40;;;;;;5012095;28;20025;-83
2022/06/20 11:18:52;;;;;;;2.63;0.50;;;22.40;54.40;;;;;;4975482;28;20085;-84
2022/06/20 11:21:28;;;;;;;2.97;0.60;;;22.60;54.20;;;;;;5015482;28;20034;-84
2022/06/20 11:24:11;;;;;;;2.15;0.43;;;22.80;54.00;;;;;;5017186;28;20026;-81
2022/06/20 11:26:45;;;;;;;4.43;0.50;;;22.90;53.20;;;;;;5017289;28;20049;-84
2022/06/20 11:29:29;;;;;;;2.13;0.43;;;23.00;52.90;;;;;;5017829;28;20026;-82
2022/06/20 11:32:10;;;;;;;2.92;0.40;;;23.10;52.70;;;;;;5016986;28;20026;-82
2022/06/20 11:34:56;;;;;;;3.55;0.60;;;23.20;52.40;;;;;;5017091;28;20026;-81
2022/06/20 11:37:29;;;;;;;3.85;0.60;;;23.20;52.70;;;;;;5016636;28;20111;-82
2022/06/20 11:40:15;;;;;;;2.58;0.50;;;23.20;52.60;;;;;;5017055;28;20390;-82
2022/06/20 11:42:45;;;;;;;4.68;0.60;;;23.20;52.60;;;;;;5017255;28;20022;-86
2022/06/20 11:45:16;;;;;;;3.42;0.70;;;23.30;52.60;;;;;;5015739;28;20026;-81
2022/06/20 11:48:22;;;;;;;3.00;0.60;;;23.40;52.40;;;;;;5015715;28;20057;-84
2022/06/20 11:51:23;;;;;;;2.33;0.70;;;23.50;51.50;;;;;;5016045;28;20032;-83
2022/06/20 11:54:01;;;;;;;4.00;0.55;;;23.70;51.20;;;;;;5016990;28;20029;-82
2022/06/20 11:56:44;;;;;;;1.98;0.68;;;23.80;50.90;;;;;;5017127;28;20022;-86
2022/06/20 11:59:52;;;;;;;2.50;0.60;;;23.80;50.40;;;;;;5031994;28;20044;-85
2022/06/20 12:02:42;;;;;;;5.53;0.88;;;23.80;50.30;;;;;;5008392;28;20137;-83
2022/06/20 12:05:25;;;;;;;2.15;0.77;;;23.80;50.30;;;;;;5016896;28;20029;-77
2022/06/20 12:08:12;;;;;;;5.47;0.77;;;23.90;50.30;;;;;;5016760;28;20068;-78
2022/06/20 12:10:47;;;;;;;3.33;0.63;;;24.00;50.20;;;;;;5016490;28;20474;-76
2022/06/20 12:13:24;;;;;;;3.67;0.60;;;24.10;50.20;;;;;;5031900;28;20030;-80
2022/06/20 12:15:57;;;;;;;2.28;0.52;;;24.10;49.80;;;;;;5015123;28;20026;-77
2022/06/20 12:24:25;;;;;;;2.17;0.43;;;24.40;49.60;;;;;;5016860;28;20040;-74
2022/06/20 12:26:52;;;;;;;4.03;0.73;;;24.60;49.60;;;;;;5016387;28;20106;-77
2022/06/20 12:29:31;;;;;;;1.88;0.40;;;24.70;49.40;;;;;;5014193;28;20050;-75
2022/06/20 12:32:00;;;;;;;3.08;0.50;;;25.00;49.10;;;;;;5016732;28;20030;-76
2022/06/20 12:34:37;;;;;;;5.05;0.65;;;25.20;49.10;;;;;;5016541;28;20022;-74
2022/06/20 12:37:16;;;;;;;1.40;0.50;;;25.50;49.00;;;;;;5015222;28;20358;-77
2022/06/20 12:39:50;;;;;;;2.20;0.70;;;25.80;48.80;;;;;;5016049;28;20026;-74
2022/06/20 12:42:42;;;;;;;3.63;0.52;;;25.90;48.50;;;;;;5014722;28;20474;-77
2022/06/20 12:45:30;;;;;;;4.35;0.75;;;25.90;47.90;;;;;;5014777;28;20053;-76
2022/06/20 12:48:23;;;;;;;2.80;0.70;;;25.80;47.90;;;;;;5016077;28;20026;-77
2022/06/20 12:51:22;;;;;;;3.88;0.75;;;25.70;47.80;;;;;;5015630;28;20053;-76
2022/06/20 12:54:25;;;;;;;4.18;0.60;;;25.60;47.90;;;;;;5015580;28;20069;-80
2022/06/20 12:57:07;;;;;;;2.47;0.68;;;25.50;47.80;;;;;;4998821;28;20026;-76
2022/06/20 13:00:00;;;;;;;4.10;0.60;;;25.40;47.80;;;;;;5014417;28;20067;-82
2022/06/20 13:02:47;;;;;;;3.20;0.80;;;25.40;48.10;;;;;;5015142;28;20042;-81
2022/06/20 13:05:35;;;;;;;2.90;0.50;;;25.40;48.00;;;;;;5014374;28;20529;-81
2022/06/20 13:08:00;;;;;;;6.38;1.05;;;25.40;47.80;;;;;;5015653;28;20045;-82
2022/06/20 13:10:41;;;;;;;3.03;0.50;;;25.40;47.90;;;;;;5015122;28;20068;-80
2022/06/20 13:13:51;;;;;;;2.30;0.60;;;25.50;47.80;;;;;;5013744;28;20476;-82
2022/06/20 13:16:41;;;;;;;3.95;0.75;;;25.40;47.70;;;;;;5015501;28;20030;-80
2022/06/20 13:19:12;;;;;;;4.60;0.75;;;25.40;47.90;;;;;;5015337;28;20467;-81
2022/06/20 13:21:43;;;;;;;6.18;1.08;;;25.40;48.10;;;;;;5030212;28;20029;-83
2022/06/20 13:24:19;;;;;;;3.92;0.75;;;25.30;48.10;;;;;;5015200;28;20026;-81
2022/06/20 13:26:59;;;;;;;5.20;0.82;;;25.20;48.10;;;;;;5014885;28;20470;-81
2022/06/20 13:29:31;;;;;;;3.80;0.63;;;25.10;48.30;;;;;;5014763;28;20026;-81
2022/06/20 13:32:31;;;;;;;4.82;0.90;;;25.20;48.60;;;;;;5029861;28;20493;-81
2022/06/20 13:35:03;;;;;;;3.92;0.80;;;25.40;48.30;;;;;;5014615;28;20026;-78
2022/06/20 13:37:55;;;;;;;3.65;0.90;;;25.60;48.30;;;;;;5014603;28;20378;-78
2022/06/20 13:40:29;;;;;;;4.60;0.90;;;25.70;48.20;;;;;;5014286;28;20038;-79
2022/06/20 13:43:13;;;;;;;6.80;0.82;;;25.70;48.30;;;;;;5014705;28;20433;-80
2022/06/20 13:45:49;;;;;;;;;;;25.60;48.30;;;;;;5015080;28;20029;-79
2022/06/20 13:48:36;;;;;;;3.65;0.70;;;25.50;48.40;;;;;;5014600;28;19909;-80
2022/06/20 13:51:16;;;;;;;3.67;0.75;;;25.40;48.40;;;;;;5014384;28;20022;-83